createdAt,value
2018-06-11T00:02:07.332Z,21.90
2018-06-11T00:04:36.086Z,21.80
2018-06-11T00:07:04.821Z,21.80
2018-06-11T00:09:33.603Z,21.80
2018-06-11T00:14:30.996Z,21.70
2018-06-11T00:16:59.826Z,21.60
2018-06-11T00:19:28.691Z,21.70
2018-06-11T00:21:57.428Z,21.70
2018-06-11T00:24:26.217Z,21.60
2018-06-11T00:26:55.047Z,21.50
2018-06-11T00:31:52.255Z,21.60
2018-06-11T00:34:21.090Z,21.60
2018-06-11T00:36:49.825Z,21.40
2018-06-11T00:39:18.651Z,21.50
2018-06-11T00:41:47.424Z,21.50
2018-06-11T00:44:16.189Z,21.40
2018-06-11T00:46:45.060Z,21.40
2018-06-11T00:49:13.822Z,21.40
2018-06-11T00:56:39.602Z,21.40
2018-06-11T00:59:08.364Z,21.30
2018-06-11T01:01:37.177Z,21.30
2018-06-11T01:04:06.047Z,21.30
2018-06-11T01:06:34.857Z,21.30
2018-06-11T01:09:05.197Z,21.20
2018-06-11T01:11:34.063Z,21.20
2018-06-11T01:14:02.857Z,21.10
2018-06-11T01:16:31.643Z,21.20
2018-06-11T01:19:00.382Z,21.10
2018-06-11T01:21:29.194Z,21.10
2018-06-11T01:23:58.020Z,21.10
2018-06-11T01:26:26.817Z,21.00
2018-06-11T01:28:55.667Z,21.00
2018-06-11T01:33:53.251Z,21.10
2018-06-11T01:38:51.874Z,21.10
2018-06-11T01:41:20.636Z,21.10
2018-06-11T01:46:17.856Z,21.00
2018-06-11T01:48:46.610Z,21.00
2018-06-11T01:51:15.417Z,21.00
2018-06-11T01:53:44.202Z,20.90
2018-06-11T01:56:13.003Z,20.90
2018-06-11T01:58:42.391Z,21.00
2018-06-11T02:01:11.234Z,21.00
2018-06-11T02:03:40.075Z,20.90
2018-06-11T02:06:08.796Z,20.90
2018-06-11T02:08:37.564Z,20.90
2018-06-11T02:11:06.328Z,20.80
2018-06-11T02:13:35.119Z,20.80
2018-06-11T02:16:03.851Z,20.70
2018-06-11T02:18:32.701Z,20.70
2018-06-11T02:21:01.445Z,20.60
2018-06-11T02:23:30.320Z,20.70
2018-06-11T02:25:59.698Z,20.60
2018-06-11T02:28:28.468Z,20.60
2018-06-11T02:30:57.356Z,20.60
2018-06-11T02:33:26.116Z,20.60
2018-06-11T02:35:54.948Z,20.60
2018-06-11T02:38:23.727Z,20.60
2018-06-11T02:40:52.657Z,20.60
2018-06-11T02:43:21.384Z,20.60
2018-06-11T02:48:18.579Z,20.50
2018-06-11T02:50:47.363Z,20.50
2018-06-11T02:53:16.223Z,20.50
2018-06-11T02:55:44.964Z,20.40
2018-06-11T02:58:13.807Z,20.40
2018-06-11T03:05:39.587Z,20.30
2018-06-11T03:08:08.339Z,20.40
2018-06-11T03:10:37.084Z,20.30
2018-06-11T03:13:05.836Z,20.40
2018-06-11T03:20:31.538Z,20.50
2018-06-11T03:23:00.391Z,20.40
2018-06-11T03:25:29.152Z,20.50
2018-06-11T03:27:57.908Z,20.60
2018-06-11T03:35:23.938Z,20.40
2018-06-11T03:37:52.783Z,20.40
2018-06-11T03:40:21.539Z,20.40
2018-06-11T03:42:51.428Z,20.40
2018-06-11T03:45:20.213Z,20.40
2018-06-11T03:47:48.993Z,20.40
2018-06-11T03:50:17.820Z,20.40
2018-06-11T03:52:46.687Z,20.50
2018-06-11T03:55:15.469Z,20.50
2018-06-11T03:57:44.257Z,20.50
2018-06-11T04:00:13.075Z,20.60
2018-06-11T04:02:42.135Z,20.70
2018-06-11T04:05:10.894Z,20.80
2018-06-11T04:07:40.293Z,20.70
2018-06-11T04:10:09.105Z,20.70
2018-06-11T04:17:34.899Z,20.60
2018-06-11T04:20:04.524Z,20.50
2018-06-11T04:22:33.366Z,20.50
2018-06-11T04:27:30.636Z,20.60
2018-06-11T04:29:59.400Z,20.50
2018-06-11T04:34:56.700Z,20.50
2018-06-11T04:37:25.494Z,20.50
2018-06-11T04:39:54.214Z,20.50
2018-06-11T04:42:23.068Z,20.50
2018-06-11T04:44:51.866Z,20.60
2018-06-11T04:47:20.764Z,20.70
2018-06-11T04:49:49.536Z,20.80
2018-06-11T04:52:18.320Z,20.70
2018-06-11T04:54:47.089Z,20.60
2018-06-11T05:07:10.713Z,20.60
2018-06-11T05:09:39.544Z,20.70
2018-06-11T05:12:08.311Z,20.70
2018-06-11T05:14:37.106Z,20.70
2018-06-11T05:17:05.896Z,20.80
2018-06-11T05:19:34.653Z,20.80
2018-06-11T05:22:03.440Z,20.70
2018-06-11T05:24:32.233Z,20.80
2018-06-11T05:27:01.129Z,20.70
2018-06-11T05:29:29.915Z,20.70
2018-06-11T05:31:58.807Z,20.70
2018-06-11T05:34:28.256Z,20.80
2018-06-11T05:36:57.034Z,20.80
2018-06-11T05:39:25.800Z,20.70
2018-06-11T05:44:23.170Z,20.60
2018-06-11T05:46:51.964Z,20.60
2018-06-11T05:51:50.100Z,20.70
2018-06-11T05:54:18.859Z,20.70
2018-06-11T05:56:47.629Z,20.80
2018-06-11T05:59:16.448Z,20.80
2018-06-11T06:01:45.299Z,20.90
2018-06-11T06:04:14.052Z,20.90
2018-06-11T06:06:42.906Z,20.90
2018-06-11T06:09:11.659Z,21.10
2018-06-11T06:11:40.428Z,21.10
2018-06-11T06:14:09.212Z,21.10
2018-06-11T06:16:38.064Z,21.20
2018-06-11T06:19:07.350Z,21.20
2018-06-11T06:21:36.173Z,21.10
2018-06-11T06:24:05.864Z,21.20
2018-06-11T06:26:34.613Z,21.20
2018-06-11T06:29:04.697Z,21.20
2018-06-11T06:31:33.549Z,21.20
2018-06-11T06:36:30.815Z,21.40
2018-06-11T06:38:59.636Z,21.50
2018-06-11T06:41:28.397Z,21.50
2018-06-11T06:46:25.721Z,21.50
2018-06-11T06:48:54.581Z,21.40
2018-06-11T06:51:23.416Z,21.40
2018-06-11T06:53:52.231Z,21.40
2018-06-11T06:56:20.991Z,21.40
2018-06-11T06:58:49.782Z,21.40
2018-06-11T07:01:18.585Z,21.50
2018-06-11T07:03:47.315Z,21.50
2018-06-11T07:06:16.064Z,21.50
2018-06-11T07:08:45.608Z,21.50
2018-06-11T07:11:14.394Z,21.60
2018-06-11T07:13:43.178Z,21.60
2018-06-11T07:16:11.909Z,21.60
2018-06-11T07:18:40.744Z,21.60
2018-06-11T07:21:09.549Z,21.60
2018-06-11T07:23:38.290Z,21.60
2018-06-11T07:26:07.099Z,21.50
2018-06-11T07:28:35.918Z,21.50
2018-06-11T07:31:04.709Z,21.50
2018-06-11T07:33:33.459Z,21.50
2018-06-11T07:36:02.216Z,21.50
2018-06-11T07:38:30.985Z,21.50
2018-06-11T07:40:59.905Z,21.60
2018-06-11T07:43:28.585Z,21.60
2018-06-11T07:45:57.356Z,21.80
2018-06-11T07:48:26.238Z,21.90
2018-06-11T07:50:55.032Z,21.90
2018-06-11T07:53:23.756Z,21.80
2018-06-11T07:55:52.498Z,21.90
2018-06-11T07:58:21.227Z,21.90
2018-06-11T08:00:50.081Z,21.80
2018-06-11T08:03:18.867Z,21.70
2018-06-11T08:05:47.649Z,21.70
2018-06-11T08:08:17.352Z,21.60
2018-06-11T08:10:46.157Z,21.70
2018-06-11T08:13:16.559Z,21.70
2018-06-11T08:15:45.365Z,21.80
2018-06-11T08:18:14.197Z,21.80
2018-06-11T08:20:42.979Z,21.80
2018-06-11T08:23:11.849Z,22.00
2018-06-11T08:25:40.579Z,22.10
2018-06-11T08:28:09.610Z,22.10
2018-06-11T08:33:06.840Z,21.90
2018-06-11T08:35:35.564Z,21.90
2018-06-11T08:38:04.365Z,22.00
2018-06-11T08:40:33.124Z,22.00
2018-06-11T08:45:30.416Z,22.10
2018-06-11T08:47:59.191Z,22.10
2018-06-11T08:52:56.607Z,22.20
2018-06-11T08:55:25.480Z,22.10
2018-06-11T08:57:54.240Z,22.10
2018-06-11T09:02:51.747Z,22.00
2018-06-11T09:07:49.101Z,21.90
2018-06-11T09:10:17.840Z,22.00
2018-06-11T09:12:46.703Z,22.10
2018-06-11T09:15:15.450Z,22.20
2018-06-11T09:20:13.239Z,22.40
2018-06-11T09:22:41.942Z,22.50
2018-06-11T09:25:10.773Z,22.50
2018-06-11T09:27:39.463Z,22.40
2018-06-11T09:30:08.269Z,22.30
2018-06-11T09:32:37.023Z,22.20
2018-06-11T09:35:05.903Z,22.20
2018-06-11T09:37:34.979Z,22.20
2018-06-11T09:40:03.763Z,22.30
2018-06-11T09:42:32.511Z,22.40
2018-06-11T09:45:01.352Z,22.40
2018-06-11T09:47:30.296Z,22.50
2018-06-11T09:49:59.153Z,22.50
2018-06-11T09:52:27.911Z,22.40
2018-06-11T09:54:56.723Z,22.40
2018-06-11T09:57:25.489Z,22.30
2018-06-11T10:02:22.713Z,22.40
2018-06-11T10:04:51.456Z,22.50
2018-06-11T10:07:20.196Z,22.50
2018-06-11T10:09:49.073Z,22.50
2018-06-11T10:12:18.025Z,22.50
2018-06-11T10:14:46.822Z,22.50
2018-06-11T10:17:15.568Z,22.40
2018-06-11T10:19:44.381Z,22.30
2018-06-11T10:24:41.660Z,22.40
2018-06-11T10:27:10.431Z,22.40
2018-06-11T10:34:36.164Z,22.40
2018-06-11T10:37:04.989Z,22.40
2018-06-11T10:39:33.741Z,22.40
2018-06-11T10:42:02.787Z,22.50
2018-06-11T10:44:31.536Z,22.50
2018-06-11T10:47:00.309Z,22.60
2018-06-11T10:49:29.114Z,22.60
2018-06-11T10:51:57.840Z,22.70
2018-06-11T10:54:26.613Z,22.80
2018-06-11T10:56:55.452Z,23.00
2018-06-11T10:59:24.291Z,23.00
2018-06-11T11:01:53.072Z,22.90
2018-06-11T11:06:50.262Z,22.80
2018-06-11T11:09:18.978Z,22.70
2018-06-11T11:11:47.756Z,22.60
2018-06-11T11:14:16.658Z,22.60
2018-06-11T11:19:13.864Z,22.60
2018-06-11T11:21:42.598Z,22.70
2018-06-11T11:24:11.429Z,22.70
2018-06-11T11:26:40.259Z,22.90
2018-06-11T11:29:09.064Z,23.00
2018-06-11T11:31:37.901Z,22.90
2018-06-11T11:34:06.674Z,22.90
2018-06-11T11:36:35.449Z,22.90
2018-06-11T11:39:07.297Z,22.90
2018-06-11T11:41:36.188Z,22.90
2018-06-11T11:44:05.507Z,22.90
2018-06-11T11:46:34.286Z,22.90
2018-06-11T11:49:03.032Z,22.90
2018-06-11T11:54:00.246Z,22.90
2018-06-11T11:56:29.888Z,22.90
2018-06-11T11:58:59.398Z,22.90
2018-06-11T12:01:28.767Z,22.90
2018-06-11T12:03:57.832Z,23.00
2018-06-11T12:06:26.559Z,23.10
2018-06-11T12:08:55.382Z,23.20
2018-06-11T12:11:25.118Z,23.10
2018-06-11T12:13:53.883Z,23.10
2018-06-11T12:18:51.185Z,23.20
2018-06-11T12:21:19.947Z,23.10
2018-06-11T12:26:18.056Z,23.10
2018-06-11T12:28:46.900Z,23.20
2018-06-11T12:31:15.689Z,23.20
2018-06-11T12:33:44.521Z,23.20
2018-06-11T12:36:13.441Z,23.10
2018-06-11T12:38:47.645Z,23.20
2018-06-11T12:41:16.746Z,23.30
2018-06-11T12:43:45.608Z,23.30
2018-06-11T12:51:12.184Z,23.20
2018-06-11T12:56:09.465Z,23.30
2018-06-11T12:58:38.261Z,23.30
2018-06-11T13:01:07.111Z,23.40
2018-06-11T13:06:04.326Z,23.40
2018-06-11T13:08:33.103Z,23.40
2018-06-11T13:11:01.996Z,23.30
2018-06-11T13:13:30.801Z,23.30
2018-06-11T13:15:59.667Z,23.30
2018-06-11T13:18:28.829Z,23.40
2018-06-11T13:20:57.563Z,23.50
2018-06-11T13:23:26.433Z,23.50
2018-06-11T13:28:24.405Z,23.40
2018-06-11T13:30:53.880Z,23.50
2018-06-11T13:33:25.380Z,23.50
2018-06-11T13:35:54.192Z,23.50
2018-06-11T13:38:22.977Z,23.60
2018-06-11T13:43:20.189Z,23.60
2018-06-11T13:45:49.740Z,23.60
2018-06-11T13:48:18.514Z,23.60
2018-06-11T13:53:15.783Z,23.50
2018-06-11T13:58:12.998Z,23.50
2018-06-11T14:00:41.851Z,23.50
2018-06-11T14:05:39.211Z,23.70
2018-06-11T14:08:07.952Z,23.80
2018-06-11T14:10:36.676Z,23.80
2018-06-11T14:13:05.460Z,23.80
2018-06-11T14:15:34.201Z,23.80
2018-06-11T14:18:02.973Z,23.80
2018-06-11T14:20:31.691Z,23.70
2018-06-11T14:23:01.333Z,23.80
2018-06-11T14:25:30.043Z,23.80
2018-06-11T14:35:24.377Z,24.00
2018-06-11T14:40:22.804Z,24.00
2018-06-11T14:42:51.605Z,24.00
2018-06-11T14:45:20.336Z,24.00
2018-06-11T14:47:49.342Z,24.00
2018-06-11T14:52:47.453Z,24.00
2018-06-11T14:55:16.246Z,24.00
2018-06-11T14:57:45.549Z,24.00
2018-06-11T15:02:42.902Z,24.10
2018-06-11T15:07:40.127Z,24.20
2018-06-11T15:10:09.485Z,24.20
2018-06-11T15:12:38.271Z,24.20
2018-06-11T15:20:04.621Z,24.30
2018-06-11T15:22:33.423Z,24.30
2018-06-11T15:25:02.148Z,24.30
2018-06-11T15:27:30.892Z,24.20
2018-06-11T15:34:56.547Z,24.30
2018-06-11T15:37:25.347Z,24.30
2018-06-11T15:39:54.147Z,24.30
2018-06-11T15:42:22.923Z,24.40
2018-06-11T15:44:51.713Z,24.40
2018-06-11T15:47:20.482Z,24.40
2018-06-11T15:54:46.224Z,24.30
2018-06-11T15:57:15.342Z,24.30
2018-06-11T15:59:44.136Z,24.30
2018-06-11T16:02:12.921Z,24.30
2018-06-11T16:04:41.711Z,24.40
2018-06-11T16:07:10.466Z,24.50
2018-06-11T16:09:39.207Z,24.50
2018-06-11T16:12:08.015Z,24.50
2018-06-11T16:19:33.860Z,24.50
2018-06-11T16:22:02.584Z,24.50
2018-06-11T16:24:31.399Z,24.50
2018-06-11T16:27:01.876Z,24.40
2018-06-11T16:29:30.644Z,24.30
2018-06-11T16:31:59.373Z,24.30
2018-06-11T16:34:28.752Z,24.30
2018-06-11T16:36:57.491Z,24.40
2018-06-11T16:44:23.256Z,24.50
2018-06-11T16:46:52.045Z,24.60
2018-06-11T16:49:20.883Z,24.60
2018-06-11T16:51:49.701Z,24.60
2018-06-11T16:56:46.943Z,24.60
2018-06-11T16:59:15.719Z,24.60
2018-06-11T17:01:45.186Z,24.70
2018-06-11T17:04:14.012Z,24.70
2018-06-11T17:06:42.793Z,24.70
2018-06-11T17:09:11.668Z,24.80
2018-06-11T17:11:40.550Z,24.80
2018-06-11T17:14:09.773Z,24.70
2018-06-11T17:16:38.522Z,24.70
2018-06-11T17:21:35.776Z,24.60
2018-06-11T17:24:04.536Z,24.60
2018-06-11T17:26:33.714Z,24.60
2018-06-11T17:34:00.062Z,24.30
2018-06-11T17:36:28.819Z,24.20
2018-06-11T17:38:57.603Z,24.20
2018-06-11T17:41:26.424Z,24.10
2018-06-11T17:43:55.839Z,24.10
2018-06-11T17:46:24.831Z,24.10
2018-06-11T17:48:53.574Z,24.10
2018-06-11T17:51:22.396Z,24.20
2018-06-11T17:53:51.163Z,24.20
2018-06-11T17:58:48.475Z,24.10
2018-06-11T18:01:17.222Z,24.10
2018-06-11T18:03:45.959Z,24.10
2018-06-11T18:06:14.854Z,24.10
2018-06-11T18:11:12.047Z,24.20
2018-06-11T18:13:40.824Z,24.10
2018-06-11T18:16:09.678Z,24.20
2018-06-11T18:18:38.396Z,24.10
2018-06-11T18:21:07.151Z,24.10
2018-06-11T18:23:35.895Z,24.00
2018-06-11T18:26:04.648Z,24.10
2018-06-11T18:28:33.583Z,24.10
2018-06-11T18:31:02.400Z,24.10
2018-06-11T18:33:31.200Z,24.10
2018-06-11T18:35:59.968Z,24.10
2018-06-11T18:40:57.332Z,24.10
2018-06-11T18:43:26.123Z,24.10
2018-06-11T18:45:55.027Z,24.10
2018-06-11T18:50:52.378Z,24.00
2018-06-11T18:53:21.204Z,24.10
2018-06-11T19:00:48.055Z,24.00
2018-06-11T19:03:16.879Z,24.00
2018-06-11T19:05:46.478Z,23.90
2018-06-11T19:08:15.279Z,23.80
2018-06-11T19:10:44.175Z,23.80
2018-06-11T19:13:12.992Z,23.80
2018-06-11T19:15:41.742Z,23.80
2018-06-11T19:18:10.518Z,23.80
2018-06-11T19:20:39.273Z,23.80
2018-06-11T19:23:08.140Z,23.70
2018-06-11T19:25:37.015Z,23.70
2018-06-11T19:28:05.841Z,23.60
2018-06-11T19:30:35.189Z,23.60
2018-06-11T19:33:04.021Z,23.60
2018-06-11T19:35:33.034Z,23.60
2018-06-11T19:38:01.692Z,23.60
2018-06-11T19:40:30.531Z,23.60
2018-06-11T19:47:56.472Z,23.60
2018-06-11T19:50:25.985Z,23.60
2018-06-11T19:55:23.234Z,23.60
2018-06-11T19:57:51.952Z,23.60
2018-06-11T20:02:49.278Z,23.50
2018-06-11T20:05:18.004Z,23.50
2018-06-11T20:07:46.781Z,23.50
2018-06-11T20:10:15.592Z,23.50
2018-06-11T20:12:44.492Z,23.50
2018-06-11T20:15:13.400Z,23.40
2018-06-11T20:17:42.174Z,23.30
2018-06-11T20:20:11.020Z,23.20
2018-06-11T20:22:39.867Z,23.30
2018-06-11T20:25:08.850Z,23.30
2018-06-11T20:27:37.591Z,23.20
2018-06-11T20:30:06.328Z,23.20
2018-06-11T20:32:35.103Z,23.20
2018-06-11T20:35:03.910Z,23.10
2018-06-11T20:37:32.824Z,23.10
2018-06-11T20:40:01.692Z,23.10
2018-06-11T20:42:30.549Z,23.10
2018-06-11T20:44:59.326Z,23.10
2018-06-11T20:47:28.087Z,23.10
2018-06-11T20:49:56.909Z,23.00
2018-06-11T20:52:25.640Z,23.00
2018-06-11T20:54:54.376Z,22.90
2018-06-11T20:57:23.359Z,22.90
2018-06-11T20:59:52.114Z,22.80
2018-06-11T21:02:20.953Z,22.80
2018-06-11T21:04:49.805Z,22.80
2018-06-11T21:07:18.567Z,22.90
2018-06-11T21:09:47.395Z,22.90
2018-06-11T21:12:16.197Z,22.80
2018-06-11T21:14:44.953Z,22.70
2018-06-11T21:17:13.720Z,22.70
2018-06-11T21:24:39.498Z,22.80
2018-06-11T21:27:08.233Z,22.70
2018-06-11T21:29:36.962Z,22.70
2018-06-11T21:32:05.837Z,22.70
2018-06-11T21:34:34.690Z,22.70
2018-06-11T21:37:03.516Z,22.60
2018-06-11T21:39:32.316Z,22.60
2018-06-11T21:42:01.053Z,22.50
2018-06-11T21:44:29.827Z,22.40
2018-06-11T21:46:58.653Z,22.50
2018-06-11T21:51:56.060Z,22.40
2018-06-11T21:54:24.927Z,22.40
2018-06-11T21:56:53.690Z,22.40
2018-06-11T21:59:22.415Z,22.40
2018-06-11T22:01:51.195Z,22.40
2018-06-11T22:06:48.586Z,22.30
2018-06-11T22:09:17.364Z,22.20
2018-06-11T22:11:46.162Z,22.10
2018-06-11T22:14:14.878Z,22.10
2018-06-11T22:16:43.705Z,22.00
2018-06-11T22:19:12.529Z,22.00
2018-06-11T22:21:41.293Z,22.00
2018-06-11T22:26:38.507Z,21.80
2018-06-11T22:29:07.319Z,21.70
2018-06-11T22:31:36.108Z,21.60
2018-06-11T22:34:04.948Z,21.70
2018-06-11T22:36:33.671Z,21.60
2018-06-11T22:39:02.601Z,21.60
2018-06-11T22:41:31.277Z,21.50
2018-06-11T22:44:00.118Z,21.50
2018-06-11T22:46:29.016Z,21.40
2018-06-11T22:48:57.787Z,21.30
2018-06-11T22:51:26.564Z,21.30
2018-06-11T22:53:55.362Z,21.30
2018-06-11T22:56:24.077Z,21.30
2018-06-11T22:58:52.802Z,21.30
2018-06-11T23:01:21.641Z,21.20
2018-06-11T23:03:50.612Z,21.00
2018-06-11T23:06:19.369Z,21.00
2018-06-11T23:08:48.096Z,21.00
2018-06-11T23:11:16.892Z,20.90
2018-06-11T23:13:45.675Z,20.90
2018-06-11T23:16:14.495Z,20.90
2018-06-11T23:18:43.252Z,21.10
2018-06-11T23:21:12.036Z,21.00
2018-06-11T23:23:40.924Z,20.90
2018-06-11T23:26:09.661Z,21.00
2018-06-11T23:28:38.467Z,21.00
2018-06-11T23:31:07.184Z,21.00
2018-06-11T23:33:35.980Z,20.90
2018-06-11T23:36:04.821Z,20.80
2018-06-11T23:38:33.662Z,20.70
2018-06-11T23:41:02.443Z,20.60
2018-06-11T23:43:31.848Z,20.60
2018-06-11T23:46:00.604Z,20.50
2018-06-11T23:48:29.407Z,20.60
2018-06-11T23:50:58.296Z,20.60
2018-06-11T23:55:55.588Z,20.50
2018-06-11T23:58:24.380Z,20.40
